Weather reports worldwide

Advertisment
Schmücke, Germany (10552): temperature & dewpoint: 20.09.2020 13:00:00 - 26.09.2020 13:00:00 (CEST)Schmücke, Germany (10552): temperature 5cm & temperature -5cm: 20.09.2020 13:00:00 - 26.09.2020 13:00:00 (CEST)Schmücke, Germany (10552): temperature -20cm & temperature -100cm: 20.09.2020 13:00:00 - 26.09.2020 13:00:00 (CEST)Schmücke, Germany (10552): wind speed & gusts: 20.09.2020 13:00:00 - 26.09.2020 13:00:00 (CEST)Schmücke, Germany (10552): wind direction: 20.09.2020 13:00:00 - 26.09.2020 13:00:00 (CEST)Schmücke, Germany (10552): visibility: 20.09.2020 13:00:00 - 26.09.2020 13:00:00 (CEST)Schmücke, Germany (10552): sunshine duration: 20.09.2020 13:00:00 - 26.09.2020 13:00:00 (CEST)Schmücke, Germany (10552): precipitation: 20.09.2020 13:00:00 - 26.09.2020 13:00:00 (CEST)
Date & Time tt [°C] td [°C] tt 5cm [°C] tt -5cm [°C] tt -20cm [°C] tt -100cm [°C] ff [km/h] ff [kn] fx [km/h] fx [kn] dd vv [km] sd [min] rr [mm]
26.09.2020 13:00:00 3,6 3,2 4,3 7,6 9,9 14,3 10 5 18 10 W 1,3 0 0,9
26.09.2020 12:00:00 3,7 3,2 4,5 7,7 10,0 14,3 13 7 19 10 W 0,7 0 0,9
26.09.2020 11:00:00 3,9 3,5 4,6 7,5 10,0 14,3 13 7 28 15 SW - 0 0,1
26.09.2020 10:00:00 3,9 3,5 4,5 7,2 10,1 14,3 17 9 29 16 SW 0,3 0 1,6
26.09.2020 09:00:00 3,9 3,6 4,5 7,0 10,2 14,3 15 8 27 15 SW 0,2 0 0,4
26.09.2020 08:00:00 3,7 3,4 4,1 6,9 10,3 14,3 20 11 40 21 SW 0,1 0 0,0
26.09.2020 07:00:00 3,8 3,4 4,1 7,0 10,4 14,4 21 11 36 20 SW 0,1 0 0,0
26.09.2020 06:00:00 4,0 3,7 4,2 7,1 10,6 14,4 22 12 36 19 SW 0,2 0 0,0
26.09.2020 05:00:00 4,0 3,7 4,3 7,2 10,7 14,4 23 13 41 22 SW 0,1 0 0,0
26.09.2020 04:00:00 4,2 3,9 4,5 7,4 10,8 14,4 20 11 32 17 SW 0,1 0 0,0
26.09.2020 03:00:00 4,2 3,9 4,6 7,5 10,9 14,4 20 11 34 18 SW 0,1 0 0,0
26.09.2020 02:00:00 4,4 4,1 4,6 7,6 11,1 14,4 21 11 35 19 SW 0,1 0 0,0
26.09.2020 01:00:00 4,4 4,0 4,7 7,7 11,2 14,4 24 13 36 19 SW 0,1 0 0,0
26.09.2020 00:00:00 4,4 4,0 4,8 7,8 11,4 14,4 22 12 39 21 SSW 0,7 0 0,0
25.09.2020 23:00:00 4,4 3,7 4,6 7,9 11,6 14,4 23 12 35 19 SSW 23 0 0,0
25.09.2020 22:00:00 4,4 3,7 4,8 8,1 11,8 14,4 19 10 29 15 SW 21 0 0,0
25.09.2020 21:00:00 4,5 3,7 4,8 8,3 12,0 14,4 18 10 32 18 SSW 29 0 0,0
25.09.2020 20:00:00 4,6 3,7 4,8 8,5 12,2 14,4 21 11 32 18 SW 30 0 0,0
25.09.2020 19:00:00 4,7 3,1 4,8 8,8 12,4 14,4 22 12 33 18 SW 51 0 0,0
25.09.2020 18:00:00 5,1 2,9 5,3 9,4 12,6 14,4 22 12 42 23 SW 59 0 0,0
25.09.2020 17:00:00 5,6 3,4 5,9 10,1 12,7 14,4 18 10 36 20 SW 60 0 0,0
25.09.2020 16:00:00 5,9 3,5 6,5 10,7 12,7 14,4 21 11 39 21 SW 56 0 0,0
25.09.2020 15:00:00 6,2 3,4 7,4 11,5 12,7 14,4 21 11 47 26 SW 75 5 0,0
25.09.2020 14:00:00 6,4 3,2 7,8 11,9 12,6 14,4 27 15 53 29 SSW 63 10 0,0
25.09.2020 13:00:00 6,7 4,6 8,8 11,4 12,6 14,4 29 15 48 26 SSW 57 6 0,0
25.09.2020 12:00:00 6,5 5,9 8,2 10,7 12,6 14,4 28 15 49 27 SW 26 4 0,0
25.09.2020 11:00:00 6,1 5,7 7,0 10,2 12,7 14,4 18 10 41 22 WSW 3,4 0 0,0
25.09.2020 10:00:00 6,2 5,9 6,8 9,9 12,9 14,4 29 16 52 28 SW 0,1 0 0,0
25.09.2020 09:00:00 6,0 5,6 6,4 9,8 13,1 14,4 25 14 38 20 SW 1,0 0 0,0
25.09.2020 08:00:00 6,2 5,7 6,4 10,2 13,3 14,5 24 13 50 27 WSW 12 0 1,8
25.09.2020 07:00:00 8,8 8,5 9,0 10,7 13,5 14,5 24 13 48 26 SW 0,2 0 2,2
25.09.2020 06:00:00 8,8 8,5 9,0 10,9 13,6 14,5 28 15 54 29 SW 0,1 0 0,0
25.09.2020 05:00:00 8,6 8,3 8,8 11,0 13,8 14,5 29 16 45 24 SSW 0,2 0 0,0
25.09.2020 04:00:00 8,6 8,2 8,8 11,2 14,0 14,5 21 11 33 18 SW 1,6 0 0,0
25.09.2020 03:00:00 8,7 8,0 8,5 11,3 14,2 14,5 14 8 22 12 SW 41 0 1,2
25.09.2020 02:00:00 8,7 8,2 8,7 11,5 14,5 14,5 13 7 33 18 SW 6 0 3,9
25.09.2020 01:00:00 9,3 8,6 9,2 12,2 14,8 14,5 20 11 34 19 W 4,8 0 5,2
25.09.2020 00:00:00 10,5 10,0 10,5 12,7 14,9 14,5 23 12 49 26 SW 0,2 0 10,6
24.09.2020 23:00:00 12,7 10,3 11,8 13,4 15,1 14,5 22 12 39 21 S 35 0 0,0
24.09.2020 22:00:00 12,7 9,1 12,3 13,4 15,3 14,5 17 9 37 20 S 66 0 0,0
24.09.2020 21:00:00 12,2 8,2 11,4 13,7 15,4 14,5 18 10 29 16 S 56 0 0,0
24.09.2020 20:00:00 12,5 7,9 12,3 14,3 15,6 14,5 15 8 35 19 S 53 0 0,0
24.09.2020 19:00:00 12,5 6,9 11,6 15,0 15,6 14,5 21 11 37 20 SSW 60 2 0,0
24.09.2020 18:00:00 13,1 6,2 13,0 16,1 15,6 14,5 30 16 52 28 SSW 58 20 0,0
24.09.2020 17:00:00 14,0 6,2 15,0 16,8 15,4 14,5 30 16 57 31 SSW 75 12 0,0
24.09.2020 16:00:00 13,3 5,8 14,0 17,6 15,2 14,5 36 20 60 33 SW 50 24 0,0
24.09.2020 15:00:00 14,1 5,3 16,8 18,2 14,8 14,5 33 18 69 37 SW 61 54 0,0
24.09.2020 14:00:00 13,2 3,7 14,6 16,9 14,5 14,5 34 18 67 36 SW 71 43 0,0
24.09.2020 13:00:00 13,9 7,0 16,1 16,2 14,3 14,5 39 21 60 32 SSW 45 24 0,0
24.09.2020 12:00:00 13,5 8,1 15,4 15,3 14,1 14,5 37 20 64 35 SSW 64 30 0,0
24.09.2020 11:00:00 12,2 9,9 14,3 13,1 14,2 14,4 34 18 54 29 SSW 57 5 0,0
24.09.2020 10:00:00 10,6 10,3 11,0 12,3 14,2 14,4 24 13 54 29 SW 0,4 0 0,0
24.09.2020 09:00:00 10,4 10,1 10,5 12,1 14,3 14,4 33 18 62 34 SSW 0,3 0 0,0
24.09.2020 08:00:00 10,3 9,7 10,3 12,1 14,4 14,4 29 16 49 26 SSW 3,4 0 0,0
24.09.2020 07:00:00 10,6 9,6 10,6 12,0 14,6 14,4 27 15 46 25 SSW 9 0 0,0
24.09.2020 06:00:00 10,7 9,4 10,5 11,8 14,8 14,4 31 17 51 28 SSW 16 0 0,0
24.09.2020 05:00:00 10,7 9,3 10,1 11,8 15,0 14,4 36 20 54 29 SSW 19 0 0,0
24.09.2020 04:00:00 11,0 9,6 10,4 12,1 15,2 14,4 34 19 51 28 SSW 14 0 0,0
24.09.2020 03:00:00 11,6 9,5 10,8 12,2 15,5 14,4 29 16 48 26 SSW 25 0 0,0
24.09.2020 02:00:00 11,4 9,5 10,7 12,5 15,8 14,4 29 16 47 26 SW 20 0 0,0
24.09.2020 01:00:00 11,6 9,5 10,8 12,7 16,1 14,4 30 16 48 26 SSW 21 0 0,0
24.09.2020 00:00:00 11,7 9,0 10,4 13,0 16,4 14,4 20 11 38 20 SW 32 0 0,0
23.09.2020 23:00:00 11,9 7,9 10,8 13,5 16,8 14,4 18 10 33 18 SW 41 0 0,0
23.09.2020 22:00:00 12,4 7,5 11,0 14,2 17,2 14,4 20 11 34 18 SW 45 0 0,0
23.09.2020 21:00:00 12,9 6,4 11,2 15,3 17,5 14,4 18 10 35 19 SW 47 0 0,0
23.09.2020 20:00:00 13,8 7,0 12,6 16,7 17,8 14,4 18 10 39 21 SW 44 0 0,0
23.09.2020 19:00:00 14,9 7,4 14,1 18,3 17,8 14,4 24 13 37 20 SSW 47 48 0,0
23.09.2020 18:00:00 16,2 6,7 16,5 20,7 17,7 14,4 23 12 45 24 SSW 43 49 0,0
23.09.2020 17:00:00 17,6 5,1 19,0 22,5 17,3 14,4 27 15 42 23 SSW 72 60 0,0
23.09.2020 16:00:00 18,0 5,1 20,8 23,0 16,7 14,4 26 14 45 24 SW 56 60 0,0
23.09.2020 15:00:00 17,6 7,9 20,6 22,8 16,1 14,4 26 14 41 22 SW 50 60 0,0
23.09.2020 14:00:00 16,7 9,3 19,3 21,9 15,6 14,4 23 12 37 20 SSW 37 60 0,0
23.09.2020 13:00:00 16,0 11,5 18,8 19,4 15,1 14,4 19 10 29 15 SW 29 37 0,0
23.09.2020 12:00:00 14,9 12,2 16,7 17,3 14,8 14,4 17 9 27 14 SW 18 33 0,0
23.09.2020 11:00:00 14,4 12,8 15,5 15,1 14,7 14,4 10 5 15 8 SSW 13 5 0,0
23.09.2020 10:00:00 13,3 11,7 12,7 13,7 14,8 14,4 5 3 42 23 W 20 0 0,6
23.09.2020 09:00:00 13,8 11,2 13,7 13,2 14,9 14,4 6 4 16 9 SW 21 0 0,0
23.09.2020 08:00:00 13,4 10,4 11,4 12,7 15,0 14,4 10 6 20 11 SW 28 4 0,0
23.09.2020 07:00:00 13,5 10,3 12,1 12,9 15,1 14,4 9 5 16 9 WSW 29 0 0,0
23.09.2020 06:00:00 13,5 10,9 11,6 13,0 15,3 14,4 10 6 14 7 SW 29 0 0,0
23.09.2020 05:00:00 13,8 11,2 12,5 12,9 15,5 14,4 10 5 14 8 SW 29 0 0,0
23.09.2020 04:00:00 13,1 11,0 10,7 12,7 15,8 14,4 8 4 19 11 SW 24 0 0,0
23.09.2020 03:00:00 13,6 10,8 11,5 13,1 16,1 14,4 13 7 21 11 WSW 29 0 0,0
23.09.2020 02:00:00 14,0 11,0 11,8 13,5 16,4 14,4 11 6 19 11 SW 27 0 0,0
23.09.2020 01:00:00 14,4 10,8 12,2 13,8 16,7 14,4 12 7 21 12 SW 32 0 0,0
23.09.2020 00:00:00 14,6 10,7 11,8 14,3 17,0 14,4 11 6 19 11 SW 33 0 0,0
22.09.2020 23:00:00 14,9 11,0 11,8 14,9 17,3 14,4 8 5 21 11 SSW 34 0 0,0
22.09.2020 22:00:00 15,1 10,9 12,9 15,6 17,7 14,4 11 6 20 11 SSW 36 0 0,0
22.09.2020 21:00:00 15,3 10,7 12,9 16,6 18,0 14,4 13 7 20 11 SSW 38 0 0,0
22.09.2020 20:00:00 15,0 11,6 13,1 18,2 18,1 14,4 10 5 22 12 S 36 0 0,0
22.09.2020 19:00:00 15,8 12,7 14,5 20,1 18,1 14,4 14 7 24 13 SSE 20 35 0,5
22.09.2020 18:00:00 18,9 11,6 19,8 21,5 17,9 14,4 13 7 36 19 SSW 35 40 0,0
22.09.2020 17:00:00 18,8 11,0 18,6 23,0 17,5 14,4 22 12 40 22 SSW 43 42 0,0
22.09.2020 16:00:00 20,1 11,3 23,1 24,2 16,9 14,4 21 11 40 22 SSW 48 60 0,0
22.09.2020 15:00:00 19,5 11,3 22,8 23,0 16,2 14,4 23 12 39 21 SW 43 47 0,0
22.09.2020 14:00:00 18,7 12,3 21,4 22,8 15,5 14,4 22 12 40 21 SSW 32 53 0,0
22.09.2020 13:00:00 18,7 12,1 21,8 21,1 14,8 14,4 24 13 38 20 SSW 33 60 0,0
22.09.2020 12:00:00 17,9 11,4 20,8 18,3 14,3 14,4 22 12 35 19 SSW 33 60 0,0
22.09.2020 11:00:00 17,0 10,7 19,6 15,1 14,1 14,4 17 9 26 14 SSW 25 59 0,0
22.09.2020 10:00:00 15,5 10,3 16,6 13,0 14,1 14,4 12 7 19 11 SSW 36 57 0,0
22.09.2020 09:00:00 14,3 9,9 13,7 12,0 14,2 14,4 6 4 12 7 SW 40 48 0,0
22.09.2020 08:00:00 13,2 8,4 12,3 11,1 14,4 14,4 7 4 12 6 SW 37 17 0,0
22.09.2020 07:00:00 12,7 7,8 8,9 10,9 14,7 14,4 9 5 15 8 SW 40 0 0,0
22.09.2020 06:00:00 12,3 7,4 9,1 11,2 15,0 14,4 10 5 14 7 SW 43 0 0,0
22.09.2020 05:00:00 11,9 7,5 8,3 11,5 15,3 14,4 6 3 14 7 SSW 40 0 0,0
22.09.2020 04:00:00 12,0 7,2 8,4 11,9 15,6 14,4 10 5 18 10 SW 44 0 0,0
22.09.2020 03:00:00 12,3 7,2 9,7 12,3 15,9 14,4 11 6 18 10 WSW 41 0 0,0
22.09.2020 02:00:00 12,4 6,9 8,9 12,8 16,3 14,4 8 4 21 11 SW 37 0 0,0
22.09.2020 01:00:00 12,8 6,4 9,4 13,4 16,7 14,4 11 6 16 8 SW 39 0 0,0
22.09.2020 00:00:00 13,7 6,4 10,7 14,0 17,1 14,4 10 5 16 9 SSW 44 0 0,0
21.09.2020 23:00:00 14,3 6,2 11,0 14,8 17,5 14,4 8 4 16 9 S 46 0 0,0
21.09.2020 22:00:00 13,7 7,1 10,2 15,8 17,9 14,4 10 5 13 7 S 43 0 0,0
21.09.2020 21:00:00 13,7 7,0 11,1 17,0 18,2 14,4 6 3 8 4 S 38 0 0,0
21.09.2020 20:00:00 14,8 7,0 11,8 18,7 18,4 14,4 6 3 10 6 SSW 39 5 0,0
21.09.2020 19:00:00 17,3 7,8 14,9 21,2 18,3 14,4 6 3 12 7 SW 40 60 0,0
21.09.2020 18:00:00 19,6 8,1 19,9 23,9 17,9 14,4 5 3 18 10 SW 44 60 0,0
21.09.2020 17:00:00 20,4 7,5 22,4 25,4 17,3 14,5 5 3 23 12 SSW 37 60 0,0
21.09.2020 16:00:00 20,3 9,0 24,5 25,8 16,5 14,5 8 4 21 11 SSE 40 60 0,0
21.09.2020 15:00:00 20,1 9,5 23,9 25,4 15,5 14,5 10 6 25 14 S 42 60 0,0
21.09.2020 14:00:00 19,1 8,0 22,6 23,9 14,6 14,5 11 6 23 12 SSE 49 60 0,0
21.09.2020 13:00:00 18,8 8,9 22,3 20,9 13,8 14,5 12 7 18 10 SSW 56 60 0,0
21.09.2020 12:00:00 17,2 9,4 22,0 17,4 13,3 14,5 6 4 16 9 E 56 60 0,0
21.09.2020 11:00:00 15,6 7,6 19,6 13,6 13,1 14,5 9 5 16 9 E 42 60 0,0
21.09.2020 10:00:00 14,4 6,7 17,3 11,0 13,1 14,5 9 5 25 14 E 66 60 0,0
21.09.2020 09:00:00 12,8 5,9 11,3 10,0 13,3 14,5 14 7 27 15 E 58 60 0,0
21.09.2020 08:00:00 11,0 5,0 8,8 9,7 13,5 14,5 13 7 27 15 ENE 75 31 0,0
21.09.2020 07:00:00 11,1 4,7 8,9 9,7 13,8 14,5 18 10 28 15 ENE 58 0 0,0
21.09.2020 06:00:00 10,6 5,0 8,2 10,0 14,0 14,5 15 8 22 12 ENE 59 0 0,0
21.09.2020 05:00:00 10,9 4,2 8,6 10,2 14,3 14,5 14 8 22 12 NE 64 0 0,0
21.09.2020 04:00:00 10,7 4,0 8,3 10,5 14,6 14,5 14 8 21 12 NE 49 0 0,0
21.09.2020 03:00:00 11,3 3,8 8,7 11,0 15,0 14,5 13 7 22 12 E 56 0 0,0
21.09.2020 02:00:00 10,9 4,2 8,7 11,4 15,3 14,5 13 7 26 14 ENE 61 0 0,0
21.09.2020 01:00:00 10,6 5,2 8,4 11,9 15,7 14,5 14 8 26 14 ENE 56 0 0,0
21.09.2020 00:00:00 10,9 5,2 8,8 12,5 16,0 14,5 15 8 27 15 ENE 57 0 0,0
20.09.2020 23:00:00 11,5 5,0 9,7 13,3 16,4 14,5 17 9 34 18 ENE 55 0 0,0
20.09.2020 22:00:00 12,1 4,9 10,6 14,1 16,8 14,5 21 12 37 20 ENE 56 0 0,0
20.09.2020 21:00:00 13,0 4,2 11,5 15,1 17,1 14,5 22 12 39 21 ENE 59 0 0,0
20.09.2020 20:00:00 13,1 4,0 11,5 16,5 17,3 14,5 19 10 30 16 ENE 63 15 0,0
20.09.2020 19:00:00 14,0 5,2 12,6 18,8 17,3 14,5 13 7 29 16 NE 65 60 0,0
20.09.2020 18:00:00 15,6 4,4 17,2 21,3 17,1 14,5 16 9 32 17 ENE 74 60 0,0
20.09.2020 17:00:00 16,3 3,5 18,5 22,5 16,6 14,5 14 8 32 17 NE 56 60 0,0
20.09.2020 16:00:00 16,5 3,5 20,1 23,0 16,0 14,5 16 9 30 16 ENE 44 60 0,0
20.09.2020 15:00:00 16,5 4,3 20,7 23,2 15,2 14,6 14 8 27 15 ENE 46 60 0,0
20.09.2020 14:00:00 16,1 5,0 20,8 22,1 14,5 14,6 14 8 24 13 ENE 50 60 0,0
20.09.2020 13:00:00 15,8 5,0 20,6 20,0 13,8 14,6 14 7 27 15 NE 54 60 0,0

tt = temperature
td = dewpoint
tt 5cm = temperature 5cm
tt -5cm = temperature -5cm
tt -20cm = temperature -20cm
tt -100cm = temperature -100cm
ff = wind speed
fx = gusts
dd = wind direction
vv = visibility
sd = sunshine duration
rr = precipitation

Next stations